createdAt,value
2018-01-29T00:00:55.544Z,102165.91
2018-01-29T00:01:58.006Z,102171.98
2018-01-29T00:03:00.463Z,102170.60
2018-01-29T00:04:02.941Z,102170.72
2018-01-29T00:05:05.422Z,102168.67
2018-01-29T00:06:07.884Z,102174.34
2018-01-29T00:07:10.350Z,102170.75
2018-01-29T00:08:12.819Z,102172.02
2018-01-29T00:09:15.296Z,102167.88
2018-01-29T00:10:17.788Z,102168.45
2018-01-29T00:11:20.260Z,102168.19
2018-01-29T00:12:22.879Z,102167.92
2018-01-29T00:13:25.344Z,102164.20
2018-01-29T00:14:27.812Z,102170.13
2018-01-29T00:15:30.286Z,102165.13
2018-01-29T00:16:32.751Z,102166.06
2018-01-29T00:17:35.231Z,102165.09
2018-01-29T00:18:37.706Z,102172.66
2018-01-29T00:19:40.175Z,102165.09
2018-01-29T00:20:42.660Z,102170.86
2018-01-29T00:21:45.123Z,102166.58
2018-01-29T00:22:47.595Z,102158.45
2018-01-29T00:23:50.069Z,102156.92
2018-01-29T00:24:52.544Z,102156.10
2018-01-29T00:25:55.021Z,102158.45
2018-01-29T00:26:57.480Z,102155.69
2018-01-29T00:27:59.952Z,102156.37
2018-01-29T00:29:02.419Z,102147.83
2018-01-29T00:30:04.882Z,102151.71
2018-01-29T00:31:07.342Z,102144.55
2018-01-29T00:32:09.808Z,102145.26
2018-01-29T00:33:12.290Z,102147.34
2018-01-29T00:34:14.824Z,102145.30
2018-01-29T00:35:17.271Z,102142.84
2018-01-29T00:36:19.745Z,102145.74
2018-01-29T00:37:22.229Z,102151.81
2018-01-29T00:38:24.708Z,102146.86
2018-01-29T00:39:27.171Z,102142.72
2018-01-29T00:40:29.648Z,102138.33
2018-01-29T00:41:32.128Z,102132.14
2018-01-29T00:42:34.591Z,102141.23
2018-01-29T00:43:37.064Z,102136.54
2018-01-29T00:44:39.541Z,102135.56
2018-01-29T00:45:42.007Z,102134.60
2018-01-29T00:46:44.471Z,102135.02
2018-01-29T00:47:46.935Z,102133.48
2018-01-29T00:48:49.398Z,102131.69
2018-01-29T00:49:51.863Z,102133.89
2018-01-29T00:50:54.372Z,102131.13
2018-01-29T00:51:56.839Z,102130.72
2018-01-29T00:52:59.298Z,102126.59
2018-01-29T00:54:01.775Z,102128.37
2018-01-29T00:55:04.255Z,102124.09
2018-01-29T00:56:06.723Z,102123.42
2018-01-29T00:57:09.212Z,102121.37
2018-01-29T00:58:11.688Z,102122.08
2018-01-29T00:59:14.164Z,102119.06
2018-01-29T01:00:16.622Z,102125.69
2018-01-29T01:01:19.087Z,102118.51
2018-01-29T01:02:21.551Z,102116.30
2018-01-29T01:03:24.025Z,102115.48
2018-01-29T01:04:26.500Z,102113.70
2018-01-29T01:05:28.967Z,102111.09
2018-01-29T01:06:31.451Z,102113.59
2018-01-29T01:07:33.907Z,102108.63
2018-01-29T01:08:36.374Z,102107.66
2018-01-29T01:09:38.848Z,102111.95
2018-01-29T01:10:41.310Z,102101.88
2018-01-29T01:11:43.793Z,102112.50
2018-01-29T01:12:46.262Z,102111.69
2018-01-29T01:13:48.737Z,102114.03
2018-01-29T01:14:51.221Z,102113.21
2018-01-29T01:15:53.700Z,102111.98
2018-01-29T01:16:56.163Z,102109.67
2018-01-29T01:17:58.645Z,102111.20
2018-01-29T01:19:01.118Z,102106.80
2018-01-29T01:20:03.575Z,102109.97
2018-01-29T01:21:06.049Z,102109.30
2018-01-29T01:22:08.515Z,102117.16
2018-01-29T01:23:10.996Z,102114.96
2018-01-29T01:24:13.468Z,102114.41
2018-01-29T01:25:15.946Z,102115.12
2018-01-29T01:26:18.420Z,102115.41
2018-01-29T01:27:20.887Z,102109.64
2018-01-29T01:28:23.462Z,102115.86
2018-01-29T01:29:25.917Z,102110.49
2018-01-29T01:30:28.397Z,102104.86
2018-01-29T01:31:30.854Z,102105.84
2018-01-29T01:32:33.320Z,102115.63
2018-01-29T01:33:35.786Z,102107.25
2018-01-29T01:34:38.254Z,102108.22
2018-01-29T01:35:40.715Z,102113.31
2018-01-29T01:36:43.193Z,102113.88
2018-01-29T01:37:45.654Z,102112.09
2018-01-29T01:38:48.128Z,102110.45
2018-01-29T01:39:50.590Z,102111.41
2018-01-29T01:40:53.065Z,102108.66
2018-01-29T01:41:55.534Z,102113.62
2018-01-29T01:42:57.999Z,102112.39
2018-01-29T01:44:00.460Z,102111.41
2018-01-29T01:45:02.918Z,102108.66
2018-01-29T01:46:05.396Z,102106.72
2018-01-29T01:47:07.876Z,102112.23
2018-01-29T01:48:10.352Z,102105.91
2018-01-29T01:49:12.840Z,102110.04
2018-01-29T01:50:15.325Z,102104.11
2018-01-29T01:51:17.806Z,102102.18
2018-01-29T01:52:20.281Z,102105.09
2018-01-29T01:53:22.764Z,102107.69
2018-01-29T01:54:25.249Z,102103.85
2018-01-29T01:55:27.737Z,102098.34
2018-01-29T01:56:30.313Z,102095.70
2018-01-29T01:57:32.788Z,102095.30
2018-01-29T01:58:35.246Z,102101.36
2018-01-29T01:59:37.721Z,102096.41
2018-01-29T02:00:40.197Z,102090.89
2018-01-29T02:01:42.680Z,102095.59
2018-01-29T02:02:45.152Z,102096.15
2018-01-29T02:03:47.657Z,102091.45
2018-01-29T02:04:50.118Z,102097.11
2018-01-29T02:05:52.601Z,102088.44
2018-01-29T02:06:55.081Z,102088.02
2018-01-29T02:07:57.548Z,102093.54
2018-01-29T02:09:00.028Z,102090.63
2018-01-29T02:10:02.494Z,102092.57
2018-01-29T02:11:04.954Z,102090.38
2018-01-29T02:12:07.433Z,102092.87
2018-01-29T02:13:09.913Z,102087.09
2018-01-29T02:14:12.397Z,102089.03
2018-01-29T02:15:14.869Z,102086.42
2018-01-29T02:16:17.331Z,102082.84
2018-01-29T02:17:19.805Z,102082.17
2018-01-29T02:18:22.281Z,102084.11
2018-01-29T02:19:24.757Z,102081.09
2018-01-29T02:20:27.218Z,102078.08
2018-01-29T02:21:29.695Z,102071.45
2018-01-29T02:22:32.173Z,102072.42
2018-01-29T02:23:34.644Z,102074.20
2018-01-29T02:24:37.121Z,102071.04
2018-01-29T02:25:39.608Z,102073.39
2018-01-29T02:26:42.173Z,102071.59
2018-01-29T02:27:44.635Z,102069.81
2018-01-29T02:28:47.111Z,102068.69
2018-01-29T02:29:49.609Z,102068.13
2018-01-29T02:30:52.082Z,102067.73
2018-01-29T02:31:54.538Z,102060.58
2018-01-29T02:32:57.016Z,102060.98
2018-01-29T02:33:59.489Z,102055.62
2018-01-29T02:35:01.969Z,102059.20
2018-01-29T02:36:04.427Z,102054.09
2018-01-29T02:37:06.907Z,102057.67
2018-01-29T02:38:09.366Z,102050.92
2018-01-29T02:39:11.827Z,102052.30
2018-01-29T02:40:14.286Z,102059.45
2018-01-29T02:41:16.746Z,102059.16
2018-01-29T02:42:19.215Z,102056.52
2018-01-29T02:43:21.682Z,102054.43
2018-01-29T02:44:24.160Z,102052.20
2018-01-29T02:45:26.629Z,102051.48
2018-01-29T02:46:29.112Z,102048.17
2018-01-29T02:47:31.589Z,102050.11
2018-01-29T02:48:34.055Z,102044.03
2018-01-29T02:49:36.515Z,102049.55
2018-01-29T02:50:38.994Z,102035.92
2018-01-29T02:51:41.474Z,102044.48
2018-01-29T02:52:43.935Z,102040.91
2018-01-29T02:53:46.427Z,102038.00
2018-01-29T02:54:48.900Z,102030.30
2018-01-29T02:55:51.362Z,102037.70
2018-01-29T02:56:53.831Z,102026.38
2018-01-29T02:57:56.321Z,102037.56
2018-01-29T02:58:58.796Z,102032.86
2018-01-29T03:00:01.254Z,102029.84
2018-01-29T03:01:03.730Z,102026.42
2018-01-29T03:02:06.204Z,102030.30
2018-01-29T03:03:08.667Z,102028.09
2018-01-29T03:04:11.156Z,102023.96
2018-01-29T03:05:13.637Z,102021.09
2018-01-29T03:06:16.103Z,102017.52
2018-01-29T03:07:18.581Z,102011.75
2018-01-29T03:08:21.216Z,102012.30
2018-01-29T03:09:23.674Z,102007.61
2018-01-29T03:10:26.153Z,102009.09
2018-01-29T03:11:28.633Z,102007.77
2018-01-29T03:12:31.109Z,102000.05
2018-01-29T03:13:33.577Z,101994.54
2018-01-29T03:14:36.034Z,101999.64
2018-01-29T03:15:38.514Z,101999.37
2018-01-29T03:16:40.979Z,101995.81
2018-01-29T03:17:43.442Z,101996.08
2018-01-29T03:18:45.907Z,101989.74
2018-01-29T03:19:48.380Z,101986.31
2018-01-29T03:20:50.833Z,101979.55
2018-01-29T03:21:53.295Z,101990.31
2018-01-29T03:22:55.769Z,101993.63
2018-01-29T03:23:58.238Z,101983.30
2018-01-29T03:25:00.708Z,101984.57
2018-01-29T03:26:03.176Z,101978.09
2018-01-29T03:27:05.650Z,101974.93
2018-01-29T03:28:08.120Z,101978.24
2018-01-29T03:29:10.587Z,101984.31
2018-01-29T03:30:13.049Z,101975.64
2018-01-29T03:31:15.529Z,101974.11
2018-01-29T03:32:18.000Z,101968.59
2018-01-29T03:33:20.476Z,101976.05
2018-01-29T03:34:22.953Z,101969.56
2018-01-29T03:35:25.434Z,101973.44
2018-01-29T03:36:27.916Z,101971.09
2018-01-29T03:37:30.378Z,101975.08
2018-01-29T03:38:32.839Z,101968.34
2018-01-29T03:39:35.303Z,101965.99
2018-01-29T03:40:37.777Z,101970.83
2018-01-29T03:41:40.238Z,101974.00
2018-01-29T03:42:42.712Z,101961.48
2018-01-29T03:43:45.175Z,101965.77
2018-01-29T03:44:47.635Z,101965.52
2018-01-29T03:45:50.094Z,101968.27
2018-01-29T03:46:52.573Z,101967.86
2018-01-29T03:47:55.114Z,101962.64
2018-01-29T03:48:57.571Z,101967.19
2018-01-29T03:50:00.052Z,101970.91
2018-01-29T03:51:02.540Z,101964.17
2018-01-29T03:52:05.017Z,101967.48
2018-01-29T03:53:07.490Z,101957.55
2018-01-29T03:54:09.959Z,101957.55
2018-01-29T03:55:12.418Z,101961.68
2018-01-29T03:56:14.890Z,101957.55
2018-01-29T03:57:17.385Z,101957.55
2018-01-29T03:58:19.860Z,101960.30
2018-01-29T03:59:22.356Z,101962.13
2018-01-29T04:00:24.833Z,101957.02
2018-01-29T04:01:27.320Z,101955.77
2018-01-29T04:02:29.801Z,101946.53
2018-01-29T04:03:32.291Z,101954.38
2018-01-29T04:04:34.764Z,101957.55
2018-01-29T04:05:37.240Z,101960.30
2018-01-29T04:06:39.718Z,101955.50
2018-01-29T04:07:42.228Z,101946.27
2018-01-29T04:08:44.691Z,101948.05
2018-01-29T04:09:47.156Z,101950.55
2018-01-29T04:10:49.611Z,101942.84
2018-01-29T04:11:52.085Z,101941.31
2018-01-29T04:12:54.547Z,101939.67
2018-01-29T04:13:57.011Z,101944.22
2018-01-29T04:14:59.492Z,101940.91
2018-01-29T04:16:01.980Z,101943.66
2018-01-29T04:17:04.452Z,101943.11
2018-01-29T04:18:06.911Z,101941.31
2018-01-29T04:19:09.375Z,101940.91
2018-01-29T04:20:11.849Z,101944.07
2018-01-29T04:21:14.310Z,101946.83
2018-01-29T04:22:16.789Z,101946.01
2018-01-29T04:23:19.256Z,101949.73
2018-01-29T04:24:21.714Z,101958.97
2018-01-29T04:25:24.562Z,101956.06
2018-01-29T04:26:27.046Z,101958.81
2018-01-29T04:27:29.510Z,101958.25
2018-01-29T04:28:31.971Z,101963.50
2018-01-29T04:29:34.439Z,101961.72
2018-01-29T04:30:36.903Z,101963.09
2018-01-29T04:31:39.371Z,101966.27
2018-01-29T04:32:41.845Z,101960.34
2018-01-29T04:33:44.325Z,101964.22
2018-01-29T04:34:46.801Z,101961.45
2018-01-29T04:35:49.280Z,101963.50
2018-01-29T04:36:51.743Z,101963.66
2018-01-29T04:37:54.206Z,101954.42
2018-01-29T04:38:56.666Z,101962.28
2018-01-29T04:39:59.135Z,101961.31
2018-01-29T04:41:01.590Z,101966.15
2018-01-29T04:42:04.051Z,101964.36
2018-01-29T04:43:06.528Z,101957.88
2018-01-29T04:44:09.007Z,101961.75
2018-01-29T04:45:11.471Z,101964.80
2018-01-29T04:46:16.368Z,101954.34
2018-01-29T04:47:18.839Z,101949.80
2018-01-29T04:48:21.448Z,101950.36
2018-01-29T04:49:23.922Z,101949.69
2018-01-29T04:50:26.382Z,101949.69
2018-01-29T04:51:28.861Z,101955.35
2018-01-29T04:52:31.349Z,101948.61
2018-01-29T04:53:33.810Z,101947.64
2018-01-29T04:54:36.284Z,101945.59
2018-01-29T04:55:38.780Z,101947.12
2018-01-29T04:56:41.254Z,101943.55
2018-01-29T04:57:43.710Z,101941.91
2018-01-29T04:58:46.185Z,101937.63
2018-01-29T04:59:48.647Z,101936.81
2018-01-29T05:00:51.103Z,101942.88
2018-01-29T05:01:53.604Z,101940.39
2018-01-29T05:02:56.070Z,101941.50
2018-01-29T05:03:58.536Z,101942.32
2018-01-29T05:05:00.994Z,101944.11
2018-01-29T05:06:03.458Z,101940.39
2018-01-29T05:07:05.940Z,101937.48
2018-01-29T05:08:08.412Z,101937.90
2018-01-29T05:09:10.889Z,101936.26
2018-01-29T05:10:13.352Z,101935.03
2018-01-29T05:11:15.828Z,101930.64
2018-01-29T05:12:18.291Z,101933.39
2018-01-29T05:13:20.755Z,101931.61
2018-01-29T05:14:23.234Z,101929.41
2018-01-29T05:15:25.704Z,101932.02
2018-01-29T05:16:28.159Z,101929.94
2018-01-29T05:17:30.632Z,101927.03
2018-01-29T05:18:33.125Z,101922.08
2018-01-29T05:19:35.602Z,101924.42
2018-01-29T05:20:38.062Z,101926.36
2018-01-29T05:21:40.588Z,101930.08
2018-01-29T05:22:43.046Z,101930.79
2018-01-29T05:23:45.510Z,101927.22
2018-01-29T05:24:48.007Z,101930.38
2018-01-29T05:25:50.451Z,101927.77
2018-01-29T05:26:52.916Z,101933.69
2018-01-29T05:27:55.394Z,101927.77
2018-01-29T05:28:57.858Z,101932.05
2018-01-29T05:30:00.318Z,101934.25
2018-01-29T05:31:02.783Z,101932.05
2018-01-29T05:32:05.246Z,101926.95
2018-01-29T05:33:07.724Z,101938.37
2018-01-29T05:34:10.201Z,101929.82
2018-01-29T05:35:14.236Z,101934.77
2018-01-29T05:36:31.561Z,101939.31
2018-01-29T05:39:16.736Z,101928.97
2018-01-29T05:40:19.202Z,101933.50
2018-01-29T05:41:21.728Z,101933.50
2018-01-29T05:42:24.154Z,101932.13
2018-01-29T05:43:26.632Z,101923.45
2018-01-29T05:44:29.106Z,101927.73
2018-01-29T05:45:31.585Z,101924.68
2018-01-29T05:46:34.061Z,101927.44
2018-01-29T05:47:36.560Z,101933.09
2018-01-29T05:48:39.065Z,101917.80
2018-01-29T05:49:41.553Z,101924.69
2018-01-29T05:50:44.014Z,101927.98
2018-01-29T05:51:46.565Z,101928.25
2018-01-29T05:52:48.977Z,101924.83
2018-01-29T05:53:51.467Z,101924.56
2018-01-29T05:54:53.931Z,101924.13
2018-01-29T05:55:56.408Z,101925.23
2018-01-29T05:56:58.892Z,101926.47
2018-01-29T05:58:01.402Z,101922.33
2018-01-29T05:59:03.890Z,101919.43
2018-01-29T06:00:06.351Z,101925.31
2018-01-29T06:01:08.819Z,101925.31
2018-01-29T06:02:11.293Z,101925.20
2018-01-29T06:03:13.768Z,101919.06
2018-01-29T06:04:16.266Z,101921.15
2018-01-29T06:05:18.815Z,101917.50
2018-01-29T06:06:21.279Z,101918.13
2018-01-29T06:07:23.761Z,101924.94
2018-01-29T06:08:26.237Z,101924.64
2018-01-29T06:09:28.722Z,101925.41
2018-01-29T06:10:31.196Z,101919.56
2018-01-29T06:11:33.668Z,101926.62
2018-01-29T06:12:36.131Z,101929.70
2018-01-29T06:13:38.607Z,101926.30
2018-01-29T06:14:41.104Z,101918.23
2018-01-29T06:15:43.567Z,101921.30
2018-01-29T06:16:46.054Z,101922.56
2018-01-29T06:17:48.611Z,101919.55
2018-01-29T06:18:51.129Z,101923.14
2018-01-29T06:19:53.587Z,101925.08
2018-01-29T06:20:56.061Z,101920.83
2018-01-29T06:21:58.545Z,101916.70
2018-01-29T06:23:01.017Z,101918.78
2018-01-29T06:24:03.497Z,101915.77
2018-01-29T06:25:05.978Z,101927.06
2018-01-29T06:26:08.465Z,101921.30
2018-01-29T06:27:10.947Z,101918.46
2018-01-29T06:28:13.414Z,101922.44
2018-01-29T06:29:15.897Z,101913.66
2018-01-29T06:30:18.401Z,101914.91
2018-01-29T06:31:20.891Z,101919.48
2018-01-29T06:32:23.364Z,101916.61
2018-01-29T06:33:25.826Z,101916.08
2018-01-29T06:34:28.302Z,101917.05
2018-01-29T06:35:30.786Z,101913.33
2018-01-29T06:36:33.261Z,101910.46
2018-01-29T06:37:35.997Z,101913.47
2018-01-29T06:38:38.627Z,101911.95
2018-01-29T06:39:41.119Z,101918.98
2018-01-29T06:40:43.644Z,101916.75
2018-01-29T06:41:46.120Z,101920.03
2018-01-29T06:42:48.626Z,101917.55
2018-01-29T06:43:51.108Z,101919.59
2018-01-29T06:44:53.589Z,101923.69
2018-01-29T06:45:56.133Z,101910.47
2018-01-29T06:46:58.599Z,101916.27
2018-01-29T06:48:01.065Z,101909.23
2018-01-29T06:49:03.537Z,101906.64
2018-01-29T06:50:06.017Z,101909.00
2018-01-29T06:51:08.517Z,101901.07
2018-01-29T06:52:10.992Z,101903.17
2018-01-29T06:53:13.454Z,101899.52
2018-01-29T06:54:15.911Z,101912.32
2018-01-29T06:55:18.388Z,101899.53
2018-01-29T06:56:20.885Z,101903.80
2018-01-29T06:57:23.369Z,101909.04
2018-01-29T06:58:25.842Z,101908.92
2018-01-29T06:59:28.369Z,101914.45
2018-01-29T07:00:30.867Z,101912.66
2018-01-29T07:01:33.351Z,101915.53
2018-01-29T07:02:35.833Z,101914.01
2018-01-29T07:03:38.321Z,101913.45
2018-01-29T07:04:40.818Z,101918.13
2018-01-29T07:05:43.285Z,101927.48
2018-01-29T07:06:45.781Z,101917.75
2018-01-29T07:07:48.248Z,101916.37
2018-01-29T07:08:50.713Z,101913.50
2018-01-29T07:09:53.185Z,101910.22
2018-01-29T07:10:55.665Z,101917.50
2018-01-29T07:11:58.150Z,101909.28
2018-01-29T07:13:00.643Z,101914.37
2018-01-29T07:14:03.181Z,101908.31
2018-01-29T07:15:05.642Z,101908.72
2018-01-29T07:16:08.118Z,101913.94
2018-01-29T07:17:10.599Z,101913.38
2018-01-29T07:18:13.067Z,101912.00
2018-01-29T07:19:15.537Z,101913.78
2018-01-29T07:20:18.011Z,101902.67
2018-01-29T07:21:20.492Z,101904.19
2018-01-29T07:22:22.994Z,101908.20
2018-01-29T07:23:25.458Z,101903.92
2018-01-29T07:24:27.933Z,101902.67
2018-01-29T07:25:30.410Z,101898.55
2018-01-29T07:26:32.893Z,101900.19
2018-01-29T07:27:35.386Z,101901.44
2018-01-29T07:28:37.851Z,101907.11
2018-01-29T07:29:40.333Z,101903.97
2018-01-29T07:30:42.805Z,101906.30
2018-01-29T07:31:45.329Z,101907.56
2018-01-29T07:32:47.808Z,101915.37
2018-01-29T07:33:50.278Z,101913.59
2018-01-29T07:34:52.761Z,101920.59
2018-01-29T07:35:55.244Z,101912.88
2018-01-29T07:36:57.750Z,101920.42
2018-01-29T07:38:00.227Z,101917.77
2018-01-29T07:39:02.757Z,101907.55
2018-01-29T07:40:05.200Z,101906.97
2018-01-29T07:41:07.682Z,101903.34
2018-01-29T07:42:10.189Z,101900.98
2018-01-29T07:43:12.882Z,101904.47
2018-01-29T07:44:15.357Z,101902.89
2018-01-29T07:45:17.841Z,101900.73
2018-01-29T07:46:20.320Z,101906.26
2018-01-29T07:47:22.824Z,101905.34
2018-01-29T07:48:25.301Z,101909.34
2018-01-29T07:49:27.801Z,101904.25
2018-01-29T07:50:30.280Z,101903.95
2018-01-29T07:51:32.755Z,101897.14
2018-01-29T07:52:35.253Z,101900.38
2018-01-29T07:53:37.737Z,101908.40
2018-01-29T07:54:40.211Z,101903.78
2018-01-29T07:55:42.697Z,101907.83
2018-01-29T07:56:45.166Z,101910.53
2018-01-29T07:57:47.667Z,101915.08
2018-01-29T07:58:50.145Z,101905.96
2018-01-29T07:59:52.619Z,101907.63
2018-01-29T08:00:55.100Z,101897.16
2018-01-29T08:01:57.567Z,101899.42
2018-01-29T08:03:00.079Z,101898.41
2018-01-29T08:04:02.548Z,101884.02
2018-01-29T08:05:05.014Z,101883.60
2018-01-29T08:06:07.591Z,101889.44
2018-01-29T08:07:10.077Z,101896.65
2018-01-29T08:08:12.583Z,101887.77
2018-01-29T08:09:15.057Z,101891.03
2018-01-29T08:10:17.573Z,101893.23
2018-01-29T08:11:20.038Z,101899.67
2018-01-29T08:12:22.516Z,101893.03
2018-01-29T08:13:25.013Z,101894.26
2018-01-29T08:14:27.501Z,101889.16
2018-01-29T08:15:29.967Z,101880.32
2018-01-29T08:16:32.433Z,101893.29
2018-01-29T08:17:34.908Z,101886.80
2018-01-29T08:18:37.402Z,101894.26
2018-01-29T08:19:39.881Z,101895.55
2018-01-29T08:20:42.358Z,101894.11
2018-01-29T08:21:44.828Z,101892.94
2018-01-29T08:22:47.327Z,101898.92
2018-01-29T08:23:49.820Z,101906.22
2018-01-29T08:24:52.346Z,101901.66
2018-01-29T08:25:54.825Z,101893.75
2018-01-29T08:26:57.759Z,101896.09
2018-01-29T08:28:00.245Z,101885.73
2018-01-29T08:29:02.727Z,101889.45
2018-01-29T08:30:05.188Z,101892.37
2018-01-29T08:31:07.664Z,101879.55
2018-01-29T08:32:10.127Z,101887.56
2018-01-29T08:33:12.591Z,101877.20
2018-01-29T08:34:15.093Z,101881.91
2018-01-29T08:35:17.569Z,101880.53
2018-01-29T08:36:20.030Z,101877.11
2018-01-29T08:37:22.508Z,101882.38
2018-01-29T08:38:24.974Z,101873.02
2018-01-29T08:39:27.479Z,101869.30
2018-01-29T08:40:30.024Z,101870.47
2018-01-29T08:41:32.486Z,101874.74
2018-01-29T08:42:35.043Z,101870.92
2018-01-29T08:43:37.623Z,101869.23
2018-01-29T08:44:40.121Z,101856.20
2018-01-29T08:45:42.625Z,101867.19
2018-01-29T08:46:45.101Z,101870.77
2018-01-29T08:47:47.563Z,101861.91
2018-01-29T08:48:50.043Z,101865.64
2018-01-29T08:49:52.549Z,101865.89
2018-01-29T08:50:55.012Z,101869.16
2018-01-29T08:51:57.475Z,101860.78
2018-01-29T08:52:59.946Z,101869.72
2018-01-29T08:54:02.427Z,101872.38
2018-01-29T08:55:04.911Z,101873.09
2018-01-29T08:56:07.389Z,101875.60
2018-01-29T08:57:09.851Z,101862.62
2018-01-29T08:58:12.326Z,101864.97
2018-01-29T08:59:14.786Z,101879.05
2018-01-29T09:00:17.278Z,101868.72
2018-01-29T09:01:19.760Z,101856.87
2018-01-29T09:02:22.410Z,101871.69
2018-01-29T09:03:24.874Z,101866.63
2018-01-29T09:04:27.353Z,101858.09
2018-01-29T09:05:29.849Z,101866.67
2018-01-29T09:06:32.318Z,101865.60
2018-01-29T09:07:34.797Z,101864.07
2018-01-29T09:08:37.285Z,101858.86
2018-01-29T09:09:39.750Z,101861.66
2018-01-29T09:10:42.251Z,101864.29
2018-01-29T09:11:44.714Z,101859.89
2018-01-29T09:12:47.179Z,101858.11
2018-01-29T09:13:49.642Z,101860.61
2018-01-29T09:14:52.121Z,101863.52
2018-01-29T09:15:54.633Z,101854.33
2018-01-29T09:16:57.102Z,101854.17
2018-01-29T09:17:59.567Z,101855.04
2018-01-29T09:19:02.043Z,101853.00
2018-01-29T09:20:04.533Z,101850.91
2018-01-29T09:21:07.037Z,101846.16
2018-01-29T09:22:09.512Z,101836.61
2018-01-29T09:23:11.983Z,101835.73
2018-01-29T09:24:14.488Z,101835.00
2018-01-29T09:25:17.001Z,101825.76
2018-01-29T09:26:19.536Z,101834.39
2018-01-29T09:27:22.031Z,101833.42
2018-01-29T09:28:24.565Z,101834.59
2018-01-29T09:29:27.056Z,101830.81
2018-01-29T09:30:29.566Z,101832.96
2018-01-29T09:31:32.070Z,101839.67
2018-01-29T09:32:34.559Z,101832.73
2018-01-29T09:33:37.058Z,101833.10
2018-01-29T09:34:39.569Z,101838.70
2018-01-29T09:35:42.063Z,101850.36
2018-01-29T09:36:44.557Z,101839.64
2018-01-29T09:37:47.270Z,101820.77
2018-01-29T09:38:49.732Z,101823.31
2018-01-29T09:39:52.219Z,101828.67
2018-01-29T09:40:54.841Z,101835.96
2018-01-29T09:41:57.427Z,101837.09
2018-01-29T09:42:59.935Z,101823.87
2018-01-29T09:44:02.414Z,101829.30
2018-01-29T09:45:04.905Z,101834.16
2018-01-29T09:46:07.729Z,101831.55
2018-01-29T09:47:10.313Z,101827.16
2018-01-29T09:48:12.838Z,101820.00
2018-01-29T09:49:15.315Z,101825.43
2018-01-29T09:50:17.809Z,101830.75
2018-01-29T09:51:20.271Z,101834.20
2018-01-29T09:52:22.769Z,101822.50
2018-01-29T09:53:25.236Z,101828.99
2018-01-29T09:54:27.699Z,101830.99
2018-01-29T09:55:30.270Z,101835.19
2018-01-29T09:56:32.907Z,101834.12
2018-01-29T09:57:35.391Z,101836.63
2018-01-29T09:58:37.880Z,101836.47
2018-01-29T09:59:40.347Z,101839.68
2018-01-29T10:00:42.826Z,101829.78
2018-01-29T10:01:45.286Z,101836.06
2018-01-29T10:02:48.093Z,101836.82
2018-01-29T10:03:50.557Z,101836.70
2018-01-29T10:04:53.038Z,101834.11
2018-01-29T10:05:55.498Z,101833.34
2018-01-29T10:06:57.958Z,101838.95
2018-01-29T10:08:00.434Z,101835.47
2018-01-29T10:09:02.902Z,101837.20
2018-01-29T10:10:05.358Z,101830.95
2018-01-29T10:11:07.837Z,101828.07
2018-01-29T10:12:10.299Z,101829.86
2018-01-29T10:13:12.785Z,101836.92
2018-01-29T10:14:15.275Z,101838.89
2018-01-29T10:15:17.755Z,101837.58
2018-01-29T10:16:20.217Z,101817.42
2018-01-29T10:17:22.678Z,101826.74
2018-01-29T10:18:25.158Z,101822.41
2018-01-29T10:19:27.638Z,101819.02
2018-01-29T10:20:30.103Z,101818.09
2018-01-29T10:21:32.562Z,101819.53
2018-01-29T10:22:35.022Z,101831.86
2018-01-29T10:23:37.548Z,101814.54
2018-01-29T10:24:40.027Z,101813.37
2018-01-29T10:25:42.490Z,101828.73
2018-01-29T10:26:44.990Z,101824.81
2018-01-29T10:27:47.455Z,101820.56
2018-01-29T10:28:49.946Z,101829.06
2018-01-29T10:29:52.406Z,101824.16
2018-01-29T10:30:54.863Z,101828.02
2018-01-29T10:31:57.344Z,101822.61
2018-01-29T10:32:59.807Z,101818.93
2018-01-29T10:34:02.319Z,101817.61
2018-01-29T10:35:04.784Z,101810.61
2018-01-29T10:36:07.250Z,101805.55
2018-01-29T10:37:09.721Z,101811.62
2018-01-29T10:38:12.186Z,101810.39
2018-01-29T10:39:14.689Z,101809.33
2018-01-29T10:40:17.169Z,101793.08
2018-01-29T10:41:19.645Z,101799.67
2018-01-29T10:42:22.116Z,101798.24
2018-01-29T10:43:24.570Z,101797.62
2018-01-29T10:44:27.073Z,101792.40
2018-01-29T10:45:29.539Z,101794.71
2018-01-29T10:46:32.019Z,101793.47
2018-01-29T10:47:34.501Z,101802.61
2018-01-29T10:48:36.958Z,101800.80
2018-01-29T10:49:39.438Z,101791.38
2018-01-29T10:50:41.954Z,101788.72
2018-01-29T10:51:44.429Z,101789.06
2018-01-29T10:52:46.891Z,101777.61
2018-01-29T10:53:49.364Z,101782.98
2018-01-29T10:54:51.850Z,101783.70
2018-01-29T10:55:54.364Z,101780.53
2018-01-29T10:56:56.833Z,101784.98
2018-01-29T10:57:59.304Z,101784.48
2018-01-29T10:59:01.776Z,101775.81
2018-01-29T11:00:04.289Z,101778.64
2018-01-29T11:01:12.333Z,101776.19
2018-01-29T11:02:14.798Z,101774.30
2018-01-29T11:03:17.262Z,101780.95
2018-01-29T11:04:19.724Z,101775.17
2018-01-29T11:05:22.225Z,101769.72
2018-01-29T11:06:24.719Z,101773.50
2018-01-29T11:07:27.222Z,101764.00
2018-01-29T11:08:29.687Z,101772.15
2018-01-29T11:09:32.165Z,101764.08
2018-01-29T11:10:34.662Z,101757.40
2018-01-29T11:11:37.124Z,101767.98
2018-01-29T11:12:39.609Z,101762.39
2018-01-29T11:13:42.074Z,101764.77
2018-01-29T11:14:44.552Z,101762.06
2018-01-29T11:15:47.042Z,101759.25
2018-01-29T11:16:49.525Z,101765.33
2018-01-29T11:17:52.004Z,101757.28
2018-01-29T11:18:54.493Z,101748.77
2018-01-29T11:19:56.976Z,101752.27
2018-01-29T11:20:59.475Z,101741.30
2018-01-29T11:22:02.071Z,101752.56
2018-01-29T11:23:04.554Z,101737.89
2018-01-29T11:24:07.037Z,101746.08
2018-01-29T11:25:09.502Z,101735.44
2018-01-29T11:26:12.001Z,101735.79
2018-01-29T11:27:14.477Z,101734.41
2018-01-29T11:28:16.972Z,101739.11
2018-01-29T11:29:19.461Z,101737.83
2018-01-29T11:30:21.946Z,101717.94
2018-01-29T11:31:24.435Z,101728.73
2018-01-29T11:32:26.925Z,101731.49
2018-01-29T11:33:29.417Z,101723.93
2018-01-29T11:34:31.886Z,101718.31
2018-01-29T11:35:34.370Z,101724.40
2018-01-29T11:36:36.876Z,101718.22
2018-01-29T11:37:39.365Z,101716.18
2018-01-29T11:38:41.858Z,101706.55
2018-01-29T11:39:44.334Z,101714.98
2018-01-29T11:40:46.856Z,101718.47
2018-01-29T11:41:49.329Z,101717.40
2018-01-29T11:42:51.817Z,101711.22
2018-01-29T11:43:54.316Z,101715.58
2018-01-29T11:44:56.786Z,101717.52
2018-01-29T11:45:59.254Z,101722.70
2018-01-29T11:47:01.761Z,101710.70
2018-01-29T11:48:04.226Z,101710.61
2018-01-29T11:49:06.712Z,101711.80
2018-01-29T11:50:09.201Z,101703.83
2018-01-29T11:51:11.671Z,101705.52
2018-01-29T11:52:14.173Z,101704.20
2018-01-29T11:53:16.643Z,101699.15
2018-01-29T11:54:19.118Z,101707.87
2018-01-29T11:55:21.582Z,101701.41